sensor_id;sensor_type;location;lat;lon;timestamp;temperature;humidity
8953;DHT22;4511;50.890;8.054;2023-03-14T00:01:54;9.80;99.90
8953;DHT22;4511;50.890;8.054;2023-03-14T00:04:21;9.80;99.90
8953;DHT22;4511;50.890;8.054;2023-03-14T00:06:48;9.80;99.90
8953;DHT22;4511;50.890;8.054;2023-03-14T00:09:15;9.80;99.90
8953;DHT22;4511;50.890;8.054;2023-03-14T00:11:42;9.70;99.90
8953;DHT22;4511;50.890;8.054;2023-03-14T00:14:11;9.80;99.90
8953;DHT22;4511;50.890;8.054;2023-03-14T00:16:39;9.70;99.90
8953;DHT22;4511;50.890;8.054;2023-03-14T00:19:06;9.70;99.90
8953;DHT22;4511;50.890;8.054;2023-03-14T00:21:32;9.70;99.90
8953;DHT22;4511;50.890;8.054;2023-03-14T00:23:59;9.70;99.90
8953;DHT22;4511;50.890;8.054;2023-03-14T00:26:26;9.80;99.90
8953;DHT22;4511;50.890;8.054;2023-03-14T00:28:53;9.80;99.90
8953;DHT22;4511;50.890;8.054;2023-03-14T00:31:23;9.80;99.90
8953;DHT22;4511;50.890;8.054;2023-03-14T00:33:51;9.80;99.90
8953;DHT22;4511;50.890;8.054;2023-03-14T00:36:19;9.80;99.90
8953;DHT22;4511;50.890;8.054;2023-03-14T00:38:48;9.80;99.90
8953;DHT22;4511;50.890;8.054;2023-03-14T00:41:17;9.90;99.90
8953;DHT22;4511;50.890;8.054;2023-03-14T00:43:44;9.90;99.90
8953;DHT22;4511;50.890;8.054;2023-03-14T00:46:11;9.90;99.90
8953;DHT22;4511;50.890;8.054;2023-03-14T00:48:40;9.90;99.90
8953;DHT22;4511;50.890;8.054;2023-03-14T00:51:08;9.90;99.90
8953;DHT22;4511;50.890;8.054;2023-03-14T00:53:35;9.80;99.90
8953;DHT22;4511;50.890;8.054;2023-03-14T00:56:05;9.90;99.90
8953;DHT22;4511;50.890;8.054;2023-03-14T00:58:32;9.90;99.90
8953;DHT22;4511;50.890;8.054;2023-03-14T01:00:59;9.90;99.90
8953;DHT22;4511;50.890;8.054;2023-03-14T01:03:25;9.90;99.90
8953;DHT22;4511;50.890;8.054;2023-03-14T01:05:54;9.90;99.90
8953;DHT22;4511;50.890;8.054;2023-03-14T01:08:32;9.90;99.90
8953;DHT22;4511;50.890;8.054;2023-03-14T01:10:59;9.90;99.90
8953;DHT22;4511;50.890;8.054;2023-03-14T01:13:26;9.90;99.90
8953;DHT22;4511;50.890;8.054;2023-03-14T01:15:53;9.90;99.90
8953;DHT22;4511;50.890;8.054;2023-03-14T01:18:19;9.80;99.90
8953;DHT22;4511;50.890;8.054;2023-03-14T01:20:46;9.70;99.90
8953;DHT22;4511;50.890;8.054;2023-03-14T01:23:14;9.60;99.90
8953;DHT22;4511;50.890;8.054;2023-03-14T01:25:41;9.60;99.90
8953;DHT22;4511;50.890;8.054;2023-03-14T01:28:08;9.60;99.90
8953;DHT22;4511;50.890;8.054;2023-03-14T01:30:34;9.60;99.90
8953;DHT22;4511;50.890;8.054;2023-03-14T01:33:01;9.50;99.90
8953;DHT22;4511;50.890;8.054;2023-03-14T01:35:28;9.50;99.90
8953;DHT22;4511;50.890;8.054;2023-03-14T01:37:55;9.50;99.90
8953;DHT22;4511;50.890;8.054;2023-03-14T01:40:23;9.50;99.90
8953;DHT22;4511;50.890;8.054;2023-03-14T01:42:55;9.50;99.90
8953;DHT22;4511;50.890;8.054;2023-03-14T01:48:37;9.50;99.90
8953;DHT22;4511;50.890;8.054;2023-03-14T01:51:08;9.50;99.90
8953;DHT22;4511;50.890;8.054;2023-03-14T01:53:37;9.50;99.90
8953;DHT22;4511;50.890;8.054;2023-03-14T01:56:08;9.40;99.90
8953;DHT22;4511;50.890;8.054;2023-03-14T01:58:35;9.40;99.90
8953;DHT22;4511;50.890;8.054;2023-03-14T02:01:03;9.40;99.90
8953;DHT22;4511;50.890;8.054;2023-03-14T02:03:35;9.40;99.90
8953;DHT22;4511;50.890;8.054;2023-03-14T02:06:06;9.40;99.90
8953;DHT22;4511;50.890;8.054;2023-03-14T02:08:35;9.40;99.90
8953;DHT22;4511;50.890;8.054;2023-03-14T02:11:04;9.40;99.90
8953;DHT22;4511;50.890;8.054;2023-03-14T02:13:34;9.40;99.90
8953;DHT22;4511;50.890;8.054;2023-03-14T02:16:02;9.40;99.90
8953;DHT22;4511;50.890;8.054;2023-03-14T02:18:29;9.40;99.90
8953;DHT22;4511;50.890;8.054;2023-03-14T02:21:00;9.40;99.90
8953;DHT22;4511;50.890;8.054;2023-03-14T02:23:36;9.40;99.90
8953;DHT22;4511;50.890;8.054;2023-03-14T02:26:10;9.40;99.90
8953;DHT22;4511;50.890;8.054;2023-03-14T02:28:39;9.40;99.90
8953;DHT22;4511;50.890;8.054;2023-03-14T02:31:06;9.40;99.90
8953;DHT22;4511;50.890;8.054;2023-03-14T02:33:35;9.40;99.90
8953;DHT22;4511;50.890;8.054;2023-03-14T02:36:06;9.30;99.90
8953;DHT22;4511;50.890;8.054;2023-03-14T02:38:37;9.30;99.90
8953;DHT22;4511;50.890;8.054;2023-03-14T02:41:06;9.30;99.90
8953;DHT22;4511;50.890;8.054;2023-03-14T02:43:33;9.30;99.90
8953;DHT22;4511;50.890;8.054;2023-03-14T02:46:02;9.20;99.90
8953;DHT22;4511;50.890;8.054;2023-03-14T02:48:34;9.20;99.90
8953;DHT22;4511;50.890;8.054;2023-03-14T02:51:02;9.20;99.90
8953;DHT22;4511;50.890;8.054;2023-03-14T02:53:31;9.20;99.90
8953;DHT22;4511;50.890;8.054;2023-03-14T02:55:58;9.20;99.90
8953;DHT22;4511;50.890;8.054;2023-03-14T02:58:26;9.10;99.90
8953;DHT22;4511;50.890;8.054;2023-03-14T03:00:53;9.10;99.90
8953;DHT22;4511;50.890;8.054;2023-03-14T03:03:22;9.10;99.90
8953;DHT22;4511;50.890;8.054;2023-03-14T03:05:49;9.10;99.90
8953;DHT22;4511;50.890;8.054;2023-03-14T03:08:17;9.10;99.90
8953;DHT22;4511;50.890;8.054;2023-03-14T03:10:43;9.10;99.90
8953;DHT22;4511;50.890;8.054;2023-03-14T03:13:10;9.10;99.90
8953;DHT22;4511;50.890;8.054;2023-03-14T03:15:37;9.10;99.90
8953;DHT22;4511;50.890;8.054;2023-03-14T03:18:04;9.10;99.90
8953;DHT22;4511;50.890;8.054;2023-03-14T03:20:32;9.10;99.90
8953;DHT22;4511;50.890;8.054;2023-03-14T03:22:59;9.20;99.90
8953;DHT22;4511;50.890;8.054;2023-03-14T03:25:27;9.10;99.90
8953;DHT22;4511;50.890;8.054;2023-03-14T03:27:54;9.10;99.90
8953;DHT22;4511;50.890;8.054;2023-03-14T03:30:21;9.10;99.90
8953;DHT22;4511;50.890;8.054;2023-03-14T03:32:47;9.10;99.90
8953;DHT22;4511;50.890;8.054;2023-03-14T03:35:14;9.10;99.90
8953;DHT22;4511;50.890;8.054;2023-03-14T03:37:43;9.10;99.90
8953;DHT22;4511;50.890;8.054;2023-03-14T03:40:10;9.20;99.90
8953;DHT22;4511;50.890;8.054;2023-03-14T03:42:37;9.20;99.90
8953;DHT22;4511;50.890;8.054;2023-03-14T03:45:04;9.20;99.90
8953;DHT22;4511;50.890;8.054;2023-03-14T03:47:31;9.10;99.90
8953;DHT22;4511;50.890;8.054;2023-03-14T03:49:58;9.10;99.90
8953;DHT22;4511;50.890;8.054;2023-03-14T03:52:25;9.00;99.90
8953;DHT22;4511;50.890;8.054;2023-03-14T03:54:53;9.00;99.90
8953;DHT22;4511;50.890;8.054;2023-03-14T03:57:20;9.00;99.90
8953;DHT22;4511;50.890;8.054;2023-03-14T03:59:46;9.00;99.90
8953;DHT22;4511;50.890;8.054;2023-03-14T04:02:13;9.00;99.90
8953;DHT22;4511;50.890;8.054;2023-03-14T04:04:40;9.00;99.90
8953;DHT22;4511;50.890;8.054;2023-03-14T04:07:07;9.00;99.90
8953;DHT22;4511;50.890;8.054;2023-03-14T04:09:34;9.00;99.90
8953;DHT22;4511;50.890;8.054;2023-03-14T04:12:05;9.00;99.90
8953;DHT22;4511;50.890;8.054;2023-03-14T04:14:32;9.00;99.90
8953;DHT22;4511;50.890;8.054;2023-03-14T04:16:58;9.00;99.90
8953;DHT22;4511;50.890;8.054;2023-03-14T04:19:25;9.00;99.90
8953;DHT22;4511;50.890;8.054;2023-03-14T04:21:52;9.00;99.90
8953;DHT22;4511;50.890;8.054;2023-03-14T04:24:18;9.00;99.90
8953;DHT22;4511;50.890;8.054;2023-03-14T04:26:45;9.00;99.90
8953;DHT22;4511;50.890;8.054;2023-03-14T04:29:13;9.10;99.90
8953;DHT22;4511;50.890;8.054;2023-03-14T04:31:40;9.10;99.90
8953;DHT22;4511;50.890;8.054;2023-03-14T04:34:07;9.10;99.90
8953;DHT22;4511;50.890;8.054;2023-03-14T04:36:33;9.10;99.90
8953;DHT22;4511;50.890;8.054;2023-03-14T04:39:02;9.10;99.90
8953;DHT22;4511;50.890;8.054;2023-03-14T04:41:29;9.10;99.90
8953;DHT22;4511;50.890;8.054;2023-03-14T04:43:56;9.10;99.90
8953;DHT22;4511;50.890;8.054;2023-03-14T04:46:24;9.20;99.90
8953;DHT22;4511;50.890;8.054;2023-03-14T04:48:51;9.20;99.90
8953;DHT22;4511;50.890;8.054;2023-03-14T04:51:17;9.20;99.90
8953;DHT22;4511;50.890;8.054;2023-03-14T04:53:44;9.20;99.90
8953;DHT22;4511;50.890;8.054;2023-03-14T04:56:11;9.20;99.90
8953;DHT22;4511;50.890;8.054;2023-03-14T04:58:38;9.20;99.90
8953;DHT22;4511;50.890;8.054;2023-03-14T05:01:05;9.20;99.90
8953;DHT22;4511;50.890;8.054;2023-03-14T05:03:34;9.20;99.90
8953;DHT22;4511;50.890;8.054;2023-03-14T05:06:04;9.20;99.90
8953;DHT22;4511;50.890;8.054;2023-03-14T05:08:31;9.30;99.90
8953;DHT22;4511;50.890;8.054;2023-03-14T05:10:57;9.30;99.90
8953;DHT22;4511;50.890;8.054;2023-03-14T05:13:24;9.20;99.90
8953;DHT22;4511;50.890;8.054;2023-03-14T05:15:51;9.30;99.90
8953;DHT22;4511;50.890;8.054;2023-03-14T05:18:19;9.30;99.90
8953;DHT22;4511;50.890;8.054;2023-03-14T05:20:47;9.30;99.90
8953;DHT22;4511;50.890;8.054;2023-03-14T05:23:16;9.20;99.90
8953;DHT22;4511;50.890;8.054;2023-03-14T05:25:43;9.30;99.90
8953;DHT22;4511;50.890;8.054;2023-03-14T05:28:10;9.20;99.90
8953;DHT22;4511;50.890;8.054;2023-03-14T05:30:37;9.20;99.90
8953;DHT22;4511;50.890;8.054;2023-03-14T05:33:04;9.20;99.90
8953;DHT22;4511;50.890;8.054;2023-03-14T05:35:30;9.20;99.90
8953;DHT22;4511;50.890;8.054;2023-03-14T05:37:59;9.20;99.90
8953;DHT22;4511;50.890;8.054;2023-03-14T05:40:25;9.10;99.90
8953;DHT22;4511;50.890;8.054;2023-03-14T05:42:52;9.20;99.90
8953;DHT22;4511;50.890;8.054;2023-03-14T05:45:19;9.20;99.90
8953;DHT22;4511;50.890;8.054;2023-03-14T05:47:46;9.20;99.90
8953;DHT22;4511;50.890;8.054;2023-03-14T05:50:13;9.20;99.90
8953;DHT22;4511;50.890;8.054;2023-03-14T05:52:39;9.20;99.90
8953;DHT22;4511;50.890;8.054;2023-03-14T05:55:08;9.20;99.90
8953;DHT22;4511;50.890;8.054;2023-03-14T05:57:35;9.20;99.90
8953;DHT22;4511;50.890;8.054;2023-03-14T06:00:02;9.10;99.90
8953;DHT22;4511;50.890;8.054;2023-03-14T06:02:29;9.10;99.90
8953;DHT22;4511;50.890;8.054;2023-03-14T06:04:56;9.10;99.90
8953;DHT22;4511;50.890;8.054;2023-03-14T06:07:23;9.10;99.90
8953;DHT22;4511;50.890;8.054;2023-03-14T06:09:50;9.10;99.90
8953;DHT22;4511;50.890;8.054;2023-03-14T06:12:18;9.10;99.90
8953;DHT22;4511;50.890;8.054;2023-03-14T06:14:45;9.00;99.90
8953;DHT22;4511;50.890;8.054;2023-03-14T06:17:12;9.00;99.90
8953;DHT22;4511;50.890;8.054;2023-03-14T06:19:38;8.90;99.90
8953;DHT22;4511;50.890;8.054;2023-03-14T06:22:05;8.90;99.90
8953;DHT22;4511;50.890;8.054;2023-03-14T06:24:32;8.90;99.90
8953;DHT22;4511;50.890;8.054;2023-03-14T06:26:59;8.90;99.90
8953;DHT22;4511;50.890;8.054;2023-03-14T06:29:29;8.90;99.90
8953;DHT22;4511;50.890;8.054;2023-03-14T06:31:56;8.80;99.90
8953;DHT22;4511;50.890;8.054;2023-03-14T06:34:23;8.90;99.90
8953;DHT22;4511;50.890;8.054;2023-03-14T06:36:49;8.90;99.90
8953;DHT22;4511;50.890;8.054;2023-03-14T06:39:16;8.90;99.90
8953;DHT22;4511;50.890;8.054;2023-03-14T06:41:43;8.80;99.90
8953;DHT22;4511;50.890;8.054;2023-03-14T06:44:10;8.90;99.90
8953;DHT22;4511;50.890;8.054;2023-03-14T06:46:38;8.90;99.90
8953;DHT22;4511;50.890;8.054;2023-03-14T06:49:05;8.90;99.90
8953;DHT22;4511;50.890;8.054;2023-03-14T06:51:32;8.90;99.90
8953;DHT22;4511;50.890;8.054;2023-03-14T06:53:59;8.90;99.90
8953;DHT22;4511;50.890;8.054;2023-03-14T06:56:26;8.90;99.90
8953;DHT22;4511;50.890;8.054;2023-03-14T06:58:52;8.90;99.90
8953;DHT22;4511;50.890;8.054;2023-03-14T07:01:22;9.00;99.90
8953;DHT22;4511;50.890;8.054;2023-03-14T07:03:51;9.00;99.90
8953;DHT22;4511;50.890;8.054;2023-03-14T07:06:18;9.00;99.90
8953;DHT22;4511;50.890;8.054;2023-03-14T07:08:45;9.00;99.90
8953;DHT22;4511;50.890;8.054;2023-03-14T07:11:12;9.00;99.90
8953;DHT22;4511;50.890;8.054;2023-03-14T07:13:39;9.00;99.90
8953;DHT22;4511;50.890;8.054;2023-03-14T07:16:07;9.00;99.90
8953;DHT22;4511;50.890;8.054;2023-03-14T07:18:34;8.90;99.90
8953;DHT22;4511;50.890;8.054;2023-03-14T07:21:04;8.90;99.90
8953;DHT22;4511;50.890;8.054;2023-03-14T07:23:31;8.90;99.90
8953;DHT22;4511;50.890;8.054;2023-03-14T07:25:58;8.90;99.90
8953;DHT22;4511;50.890;8.054;2023-03-14T07:28:25;8.90;99.90
8953;DHT22;4511;50.890;8.054;2023-03-14T07:30:52;8.90;99.90
8953;DHT22;4511;50.890;8.054;2023-03-14T07:33:19;9.00;99.90
8953;DHT22;4511;50.890;8.054;2023-03-14T07:35:46;9.00;99.90
8953;DHT22;4511;50.890;8.054;2023-03-14T07:38:15;9.00;99.90
8953;DHT22;4511;50.890;8.054;2023-03-14T07:40:41;9.00;99.90
8953;DHT22;4511;50.890;8.054;2023-03-14T07:43:08;9.00;99.90
8953;DHT22;4511;50.890;8.054;2023-03-14T07:45:35;9.00;99.90
8953;DHT22;4511;50.890;8.054;2023-03-14T07:48:03;9.00;99.90
8953;DHT22;4511;50.890;8.054;2023-03-14T07:50:30;9.00;99.90
8953;DHT22;4511;50.890;8.054;2023-03-14T07:52:56;8.90;99.90
8953;DHT22;4511;50.890;8.054;2023-03-14T07:55:24;9.00;99.90
8953;DHT22;4511;50.890;8.054;2023-03-14T07:57:51;9.00;99.90
8953;DHT22;4511;50.890;8.054;2023-03-14T08:00:19;9.00;99.90
8953;DHT22;4511;50.890;8.054;2023-03-14T08:02:46;9.00;99.90
8953;DHT22;4511;50.890;8.054;2023-03-14T08:05:12;9.00;99.90
8953;DHT22;4511;50.890;8.054;2023-03-14T08:07:39;9.10;99.90
8953;DHT22;4511;50.890;8.054;2023-03-14T08:10:08;9.10;99.90
8953;DHT22;4511;50.890;8.054;2023-03-14T08:12:36;9.10;99.90
8953;DHT22;4511;50.890;8.054;2023-03-14T08:15:03;9.10;99.90
8953;DHT22;4511;50.890;8.054;2023-03-14T08:17:30;9.10;99.90
8953;DHT22;4511;50.890;8.054;2023-03-14T08:19:57;9.10;99.90
8953;DHT22;4511;50.890;8.054;2023-03-14T08:22:23;9.10;99.90
8953;DHT22;4511;50.890;8.054;2023-03-14T08:24:50;9.20;99.90
8953;DHT22;4511;50.890;8.054;2023-03-14T08:27:17;9.20;99.90
8953;DHT22;4511;50.890;8.054;2023-03-14T08:29:45;9.20;99.90
8953;DHT22;4511;50.890;8.054;2023-03-14T08:32:12;9.30;99.90
8953;DHT22;4511;50.890;8.054;2023-03-14T08:34:38;9.30;99.90
8953;DHT22;4511;50.890;8.054;2023-03-14T08:37:05;9.30;99.90
8953;DHT22;4511;50.890;8.054;2023-03-14T08:39:32;9.30;99.90
8953;DHT22;4511;50.890;8.054;2023-03-14T08:41:59;9.40;99.90
8953;DHT22;4511;50.890;8.054;2023-03-14T08:44:25;9.40;99.90
8953;DHT22;4511;50.890;8.054;2023-03-14T08:46:54;9.50;99.90
8953;DHT22;4511;50.890;8.054;2023-03-14T08:49:20;9.50;99.90
8953;DHT22;4511;50.890;8.054;2023-03-14T08:51:47;9.60;99.90
8953;DHT22;4511;50.890;8.054;2023-03-14T08:54:14;9.70;99.90
8953;DHT22;4511;50.890;8.054;2023-03-14T08:56:40;9.80;99.90
8953;DHT22;4511;50.890;8.054;2023-03-14T08:59:07;9.80;99.90
8953;DHT22;4511;50.890;8.054;2023-03-14T09:01:36;9.90;99.90
8953;DHT22;4511;50.890;8.054;2023-03-14T09:04:04;9.90;99.90
8953;DHT22;4511;50.890;8.054;2023-03-14T09:06:32;9.90;99.90
8953;DHT22;4511;50.890;8.054;2023-03-14T09:08:59;9.90;99.90
8953;DHT22;4511;50.890;8.054;2023-03-14T09:11:25;9.80;99.90
8953;DHT22;4511;50.890;8.054;2023-03-14T09:13:52;9.80;99.90
8953;DHT22;4511;50.890;8.054;2023-03-14T09:16:19;9.90;99.90
8953;DHT22;4511;50.890;8.054;2023-03-14T09:18:46;10.00;99.90
8953;DHT22;4511;50.890;8.054;2023-03-14T09:21:14;10.10;99.90
8953;DHT22;4511;50.890;8.054;2023-03-14T09:23:41;10.10;99.90
8953;DHT22;4511;50.890;8.054;2023-03-14T09:26:08;10.20;99.90
8953;DHT22;4511;50.890;8.054;2023-03-14T09:28:35;10.20;99.90
8953;DHT22;4511;50.890;8.054;2023-03-14T09:31:06;10.20;99.90
8953;DHT22;4511;50.890;8.054;2023-03-14T09:33:33;10.30;99.90
8953;DHT22;4511;50.890;8.054;2023-03-14T09:36:00;10.30;99.90
8953;DHT22;4511;50.890;8.054;2023-03-14T09:38:28;10.40;99.90
8953;DHT22;4511;50.890;8.054;2023-03-14T09:40:57;10.40;99.90
8953;DHT22;4511;50.890;8.054;2023-03-14T09:43:26;10.50;99.90
8953;DHT22;4511;50.890;8.054;2023-03-14T09:45:55;10.50;99.90
8953;DHT22;4511;50.890;8.054;2023-03-14T09:48:26;10.40;99.90
8953;DHT22;4511;50.890;8.054;2023-03-14T09:50:55;10.40;99.90
8953;DHT22;4511;50.890;8.054;2023-03-14T09:53:28;10.30;99.90
8953;DHT22;4511;50.890;8.054;2023-03-14T09:56:02;10.30;99.90
8953;DHT22;4511;50.890;8.054;2023-03-14T09:58:29;10.30;99.90
8953;DHT22;4511;50.890;8.054;2023-03-14T10:00:57;10.30;99.90
8953;DHT22;4511;50.890;8.054;2023-03-14T10:03:26;10.30;99.90
8953;DHT22;4511;50.890;8.054;2023-03-14T10:05:55;10.40;99.90
8953;DHT22;4511;50.890;8.054;2023-03-14T10:08:22;10.40;99.90
8953;DHT22;4511;50.890;8.054;2023-03-14T10:10:50;10.50;99.90
8953;DHT22;4511;50.890;8.054;2023-03-14T10:13:19;10.60;99.90
8953;DHT22;4511;50.890;8.054;2023-03-14T10:15:50;10.50;99.90
8953;DHT22;4511;50.890;8.054;2023-03-14T10:18:18;10.40;99.90
8953;DHT22;4511;50.890;8.054;2023-03-14T10:20:46;10.30;99.90
8953;DHT22;4511;50.890;8.054;2023-03-14T10:23:23;10.20;99.90
8953;DHT22;4511;50.890;8.054;2023-03-14T10:26:04;10.10;99.90
8953;DHT22;4511;50.890;8.054;2023-03-14T10:28:33;10.00;99.90
8953;DHT22;4511;50.890;8.054;2023-03-14T10:31:00;10.00;99.90
8953;DHT22;4511;50.890;8.054;2023-03-14T10:33:29;10.00;99.90
8953;DHT22;4511;50.890;8.054;2023-03-14T10:35:58;9.90;99.90
8953;DHT22;4511;50.890;8.054;2023-03-14T10:38:28;9.90;99.90
8953;DHT22;4511;50.890;8.054;2023-03-14T10:40:55;9.80;99.90
8953;DHT22;4511;50.890;8.054;2023-03-14T10:43:26;9.80;99.90
8953;DHT22;4511;50.890;8.054;2023-03-14T10:45:55;9.70;99.90
8953;DHT22;4511;50.890;8.054;2023-03-14T10:48:29;9.80;99.90
8953;DHT22;4511;50.890;8.054;2023-03-14T10:50:59;9.80;99.90
8953;DHT22;4511;50.890;8.054;2023-03-14T10:53:33;9.80;99.90
8953;DHT22;4511;50.890;8.054;2023-03-14T10:56:02;9.80;99.90
8953;DHT22;4511;50.890;8.054;2023-03-14T10:58:40;9.70;99.90
8953;DHT22;4511;50.890;8.054;2023-03-14T11:01:18;9.70;99.90
8953;DHT22;4511;50.890;8.054;2023-03-14T11:03:54;9.50;99.90
8953;DHT22;4511;50.890;8.054;2023-03-14T11:06:28;9.40;99.90
8953;DHT22;4511;50.890;8.054;2023-03-14T11:09:02;9.40;99.90
8953;DHT22;4511;50.890;8.054;2023-03-14T11:11:31;9.20;99.90
8953;DHT22;4511;50.890;8.054;2023-03-14T11:14:08;9.10;99.90
8953;DHT22;4511;50.890;8.054;2023-03-14T11:16:44;9.00;99.90
8953;DHT22;4511;50.890;8.054;2023-03-14T11:19:36;9.00;99.90
8953;DHT22;4511;50.890;8.054;2023-03-14T11:22:14;8.90;99.90
8953;DHT22;4511;50.890;8.054;2023-03-14T11:24:55;8.80;99.90
8953;DHT22;4511;50.890;8.054;2023-03-14T11:27:29;8.80;99.90
8953;DHT22;4511;50.890;8.054;2023-03-14T11:30:05;8.90;99.90
8953;DHT22;4511;50.890;8.054;2023-03-14T11:32:43;8.90;99.90
8953;DHT22;4511;50.890;8.054;2023-03-14T11:35:16;8.70;99.90
8953;DHT22;4511;50.890;8.054;2023-03-14T11:37:46;8.80;99.90
8953;DHT22;4511;50.890;8.054;2023-03-14T11:40:17;8.90;99.90
8953;DHT22;4511;50.890;8.054;2023-03-14T11:42:49;8.90;99.90
8953;DHT22;4511;50.890;8.054;2023-03-14T11:45:20;8.60;99.90
8953;DHT22;4511;50.890;8.054;2023-03-14T11:47:53;8.70;99.90
8953;DHT22;4511;50.890;8.054;2023-03-14T11:50:24;8.60;99.90
8953;DHT22;4511;50.890;8.054;2023-03-14T11:52:55;8.70;99.90
8953;DHT22;4511;50.890;8.054;2023-03-14T11:55:27;8.60;99.90
8953;DHT22;4511;50.890;8.054;2023-03-14T11:58:00;8.60;99.90
8953;DHT22;4511;50.890;8.054;2023-03-14T12:00:30;8.40;99.90
8953;DHT22;4511;50.890;8.054;2023-03-14T12:03:00;8.50;99.90
8953;DHT22;4511;50.890;8.054;2023-03-14T12:05:39;8.40;99.90
8953;DHT22;4511;50.890;8.054;2023-03-14T12:08:29;8.30;99.90
8953;DHT22;4511;50.890;8.054;2023-03-14T12:11:00;8.40;99.90
8953;DHT22;4511;50.890;8.054;2023-03-14T12:13:29;8.40;99.90
8953;DHT22;4511;50.890;8.054;2023-03-14T12:16:00;8.20;99.90
8953;DHT22;4511;50.890;8.054;2023-03-14T12:18:32;8.10;99.90
8953;DHT22;4511;50.890;8.054;2023-03-14T12:21:01;8.10;99.90
8953;DHT22;4511;50.890;8.054;2023-03-14T12:23:36;8.20;99.90
8953;DHT22;4511;50.890;8.054;2023-03-14T12:26:15;8.40;99.90
8953;DHT22;4511;50.890;8.054;2023-03-14T12:28:50;8.40;99.90
8953;DHT22;4511;50.890;8.054;2023-03-14T12:31:41;8.40;99.90
8953;DHT22;4511;50.890;8.054;2023-03-14T12:34:28;8.40;99.90
8953;DHT22;4511;50.890;8.054;2023-03-14T12:37:04;8.20;99.90
8953;DHT22;4511;50.890;8.054;2023-03-14T12:39:36;8.20;99.90
8953;DHT22;4511;50.890;8.054;2023-03-14T12:42:07;8.10;99.90
8953;DHT22;4511;50.890;8.054;2023-03-14T12:44:44;8.10;99.90
8953;DHT22;4511;50.890;8.054;2023-03-14T12:47:45;8.10;99.90
8953;DHT22;4511;50.890;8.054;2023-03-14T12:50:19;7.90;99.90
8953;DHT22;4511;50.890;8.054;2023-03-14T12:55:41;7.70;99.90
8953;DHT22;4511;50.890;8.054;2023-03-14T12:58:17;7.80;99.90
8953;DHT22;4511;50.890;8.054;2023-03-14T13:00:54;7.70;99.90
8953;DHT22;4511;50.890;8.054;2023-03-14T13:03:25;7.90;99.90
8953;DHT22;4511;50.890;8.054;2023-03-14T13:05:56;7.90;99.90
8953;DHT22;4511;50.890;8.054;2023-03-14T13:08:42;7.80;99.90
8953;DHT22;4511;50.890;8.054;2023-03-14T13:11:10;7.90;99.90
8953;DHT22;4511;50.890;8.054;2023-03-14T13:13:44;7.80;99.90
8953;DHT22;4511;50.890;8.054;2023-03-14T13:16:16;7.80;99.90
8953;DHT22;4511;50.890;8.054;2023-03-14T13:18:45;7.70;99.90
8953;DHT22;4511;50.890;8.054;2023-03-14T13:21:15;7.60;99.90
8953;DHT22;4511;50.890;8.054;2023-03-14T13:23:56;7.50;99.90
8953;DHT22;4511;50.890;8.054;2023-03-14T13:26:31;7.40;99.90
8953;DHT22;4511;50.890;8.054;2023-03-14T13:29:00;7.40;99.90
8953;DHT22;4511;50.890;8.054;2023-03-14T13:31:26;7.30;99.90
8953;DHT22;4511;50.890;8.054;2023-03-14T13:34:01;7.10;99.90
8953;DHT22;4511;50.890;8.054;2023-03-14T13:36:28;7.00;99.90
8953;DHT22;4511;50.890;8.054;2023-03-14T13:38:56;7.00;99.90
8953;DHT22;4511;50.890;8.054;2023-03-14T13:41:24;7.00;99.90
8953;DHT22;4511;50.890;8.054;2023-03-14T13:43:51;6.90;99.90
8953;DHT22;4511;50.890;8.054;2023-03-14T13:46:23;6.80;99.90
8953;DHT22;4511;50.890;8.054;2023-03-14T13:48:53;6.80;99.90
8953;DHT22;4511;50.890;8.054;2023-03-14T13:51:23;6.80;99.90
8953;DHT22;4511;50.890;8.054;2023-03-14T13:53:51;6.90;99.90
8953;DHT22;4511;50.890;8.054;2023-03-14T13:56:20;6.80;99.90
8953;DHT22;4511;50.890;8.054;2023-03-14T13:58:48;6.90;99.90
8953;DHT22;4511;50.890;8.054;2023-03-14T14:01:17;6.80;99.90
8953;DHT22;4511;50.890;8.054;2023-03-14T14:03:47;6.60;99.90
8953;DHT22;4511;50.890;8.054;2023-03-14T14:06:28;6.70;99.90
8953;DHT22;4511;50.890;8.054;2023-03-14T14:08:56;6.60;99.90
8953;DHT22;4511;50.890;8.054;2023-03-14T14:11:38;6.60;99.90
8953;DHT22;4511;50.890;8.054;2023-03-14T14:14:12;6.50;99.90
8953;DHT22;4511;50.890;8.054;2023-03-14T14:16:41;6.70;99.90
8953;DHT22;4511;50.890;8.054;2023-03-14T14:19:09;6.80;99.90
8953;DHT22;4511;50.890;8.054;2023-03-14T14:21:38;6.90;99.90
8953;DHT22;4511;50.890;8.054;2023-03-14T14:24:05;7.10;99.90
8953;DHT22;4511;50.890;8.054;2023-03-14T14:26:32;7.20;99.90
8953;DHT22;4511;50.890;8.054;2023-03-14T14:29:01;7.40;99.90
8953;DHT22;4511;50.890;8.054;2023-03-14T14:31:28;7.80;99.90
8953;DHT22;4511;50.890;8.054;2023-03-14T14:33:56;7.90;99.90
8953;DHT22;4511;50.890;8.054;2023-03-14T14:36:26;8.20;99.90
8953;DHT22;4511;50.890;8.054;2023-03-14T14:38:58;8.20;99.90
8953;DHT22;4511;50.890;8.054;2023-03-14T14:41:30;8.00;99.90
8953;DHT22;4511;50.890;8.054;2023-03-14T14:43:58;7.90;99.90
8953;DHT22;4511;50.890;8.054;2023-03-14T14:46:28;7.80;99.90
8953;DHT22;4511;50.890;8.054;2023-03-14T14:48:56;7.70;99.90
8953;DHT22;4511;50.890;8.054;2023-03-14T14:51:27;7.50;99.90
8953;DHT22;4511;50.890;8.054;2023-03-14T14:54:11;7.50;99.90
8953;DHT22;4511;50.890;8.054;2023-03-14T14:56:39;7.40;99.90
8953;DHT22;4511;50.890;8.054;2023-03-14T14:59:18;7.30;99.90
8953;DHT22;4511;50.890;8.054;2023-03-14T15:01:46;7.20;99.90
8953;DHT22;4511;50.890;8.054;2023-03-14T15:04:15;6.90;99.90
8953;DHT22;4511;50.890;8.054;2023-03-14T15:06:44;6.60;99.90
8953;DHT22;4511;50.890;8.054;2023-03-14T15:09:13;6.50;99.90
8953;DHT22;4511;50.890;8.054;2023-03-14T15:11:42;6.40;99.90
8953;DHT22;4511;50.890;8.054;2023-03-14T15:14:08;6.50;99.90
8953;DHT22;4511;50.890;8.054;2023-03-14T15:16:35;6.60;99.90
8953;DHT22;4511;50.890;8.054;2023-03-14T15:19:10;6.60;99.90
8953;DHT22;4511;50.890;8.054;2023-03-14T15:21:38;6.60;99.90
8953;DHT22;4511;50.890;8.054;2023-03-14T15:24:05;6.50;99.90
8953;DHT22;4511;50.890;8.054;2023-03-14T15:26:33;6.70;99.90
8953;DHT22;4511;50.890;8.054;2023-03-14T15:29:00;7.00;99.90
8953;DHT22;4511;50.890;8.054;2023-03-14T15:31:26;6.90;99.90
8953;DHT22;4511;50.890;8.054;2023-03-14T15:33:53;6.90;99.90
8953;DHT22;4511;50.890;8.054;2023-03-14T15:36:22;6.80;99.90
8953;DHT22;4511;50.890;8.054;2023-03-14T15:38:50;6.80;99.90
8953;DHT22;4511;50.890;8.054;2023-03-14T15:41:16;6.60;99.90
8953;DHT22;4511;50.890;8.054;2023-03-14T15:43:45;6.60;99.90
8953;DHT22;4511;50.890;8.054;2023-03-14T15:46:12;6.70;99.90
8953;DHT22;4511;50.890;8.054;2023-03-14T15:48:40;6.80;99.90
8953;DHT22;4511;50.890;8.054;2023-03-14T15:51:07;6.70;99.90
8953;DHT22;4511;50.890;8.054;2023-03-14T15:53:34;6.70;99.90
8953;DHT22;4511;50.890;8.054;2023-03-14T15:56:02;6.90;99.90
8953;DHT22;4511;50.890;8.054;2023-03-14T15:58:29;6.80;99.90
8953;DHT22;4511;50.890;8.054;2023-03-14T16:01:00;6.90;99.90
8953;DHT22;4511;50.890;8.054;2023-03-14T16:03:27;6.80;99.90
8953;DHT22;4511;50.890;8.054;2023-03-14T16:05:54;6.80;99.90
8953;DHT22;4511;50.890;8.054;2023-03-14T16:08:21;6.90;99.90
8953;DHT22;4511;50.890;8.054;2023-03-14T16:10:48;6.90;99.90
8953;DHT22;4511;50.890;8.054;2023-03-14T16:13:16;6.90;99.90
8953;DHT22;4511;50.890;8.054;2023-03-14T16:15:51;6.90;99.90
8953;DHT22;4511;50.890;8.054;2023-03-14T16:18:19;6.90;99.90
8953;DHT22;4511;50.890;8.054;2023-03-14T16:20:54;6.90;99.90
8953;DHT22;4511;50.890;8.054;2023-03-14T16:23:22;6.90;99.90
8953;DHT22;4511;50.890;8.054;2023-03-14T16:25:48;6.80;99.90
8953;DHT22;4511;50.890;8.054;2023-03-14T16:28:16;7.30;99.90
8953;DHT22;4511;50.890;8.054;2023-03-14T16:30:43;7.00;99.90
8953;DHT22;4511;50.890;8.054;2023-03-14T16:33:09;7.00;99.90
8953;DHT22;4511;50.890;8.054;2023-03-14T16:35:38;6.90;99.90